Arlington, Virginia
Current Conditions -  °F | °C
As of 10:52 PM on Friday 31 Oct 2014 (Local Time) from KDCA Reporting Station
Scattered Clouds Scattered Clouds  
Wind Chill: 52°   Ceiling: Unl
Heat Index: 52°   Visibility: 10mi
Dew Point: 37°   Wind: 9mph
Humidity: 57%   Direction: 50°NE
Pressure: 29.86"   Gusts: NA
Location:  38.89°N, 77.09°W
Report Text: KDCA 010252Z 05008KT 10SM SCT055 SCT200 11/03 A2986 RMK AO2 SLP111 T01110028 56002
Loading
Personal Weather Stations






























Interactive Weather Map
Tropical Storm Tracking
New forecast layout! Learn more

10-Day Weather Forecast

Advertisements
Track Severe Weather on mobile